TAF Text Data
IDs:
Format:
Raw Decoded Include METAR

Data at: 2143 UTC 01 Oct 2022

TAF VLVT 011700Z 0118/0218 04006KT 4000 RA SCT013 BKN040 BKN083